sensor_id;sensor_type;location;lat;lon;timestamp;P1;durP1;ratioP1;P2;durP2;ratioP2
12687;SDS011;6408;59.388;17.798;2023-05-07T00:00:27;1.77;;;1.40;;
12687;SDS011;6408;59.388;17.798;2023-05-07T00:02:55;3.23;;;1.50;;
12687;SDS011;6408;59.388;17.798;2023-05-07T00:05:22;2.23;;;1.60;;
12687;SDS011;6408;59.388;17.798;2023-05-07T00:07:50;2.17;;;1.70;;
12687;SDS011;6408;59.388;17.798;2023-05-07T00:10:18;2.53;;;1.40;;
12687;SDS011;6408;59.388;17.798;2023-05-07T00:12:45;2.87;;;1.40;;
12687;SDS011;6408;59.388;17.798;2023-05-07T00:15:13;4.00;;;2.10;;
12687;SDS011;6408;59.388;17.798;2023-05-07T00:17:41;2.27;;;1.90;;
12687;SDS011;6408;59.388;17.798;2023-05-07T00:20:09;1.70;;;1.40;;
12687;SDS011;6408;59.388;17.798;2023-05-07T00:22:37;1.97;;;1.60;;
12687;SDS011;6408;59.388;17.798;2023-05-07T00:25:05;3.00;;;1.40;;
12687;SDS011;6408;59.388;17.798;2023-05-07T00:27:33;1.70;;;1.50;;
12687;SDS011;6408;59.388;17.798;2023-05-07T00:30:01;2.07;;;1.73;;
12687;SDS011;6408;59.388;17.798;2023-05-07T00:32:28;1.93;;;1.50;;
12687;SDS011;6408;59.388;17.798;2023-05-07T00:34:57;3.47;;;1.70;;
12687;SDS011;6408;59.388;17.798;2023-05-07T00:37:24;1.70;;;1.60;;
12687;SDS011;6408;59.388;17.798;2023-05-07T00:39:52;4.23;;;1.70;;
12687;SDS011;6408;59.388;17.798;2023-05-07T00:42:19;3.47;;;1.80;;
12687;SDS011;6408;59.388;17.798;2023-05-07T00:44:46;2.60;;;1.40;;
12687;SDS011;6408;59.388;17.798;2023-05-07T00:47:13;1.70;;;1.60;;
12687;SDS011;6408;59.388;17.798;2023-05-07T00:49:42;2.33;;;1.60;;
12687;SDS011;6408;59.388;17.798;2023-05-07T00:52:13;3.37;;;1.80;;
12687;SDS011;6408;59.388;17.798;2023-05-07T00:54:43;3.03;;;1.70;;
12687;SDS011;6408;59.388;17.798;2023-05-07T00:57:11;2.33;;;1.50;;
12687;SDS011;6408;59.388;17.798;2023-05-07T00:59:38;2.53;;;1.87;;
12687;SDS011;6408;59.388;17.798;2023-05-07T01:02:05;1.97;;;1.50;;
12687;SDS011;6408;59.388;17.798;2023-05-07T01:04:33;1.60;;;1.50;;
12687;SDS011;6408;59.388;17.798;2023-05-07T01:07:01;2.63;;;1.80;;
12687;SDS011;6408;59.388;17.798;2023-05-07T01:09:31;2.53;;;1.70;;
12687;SDS011;6408;59.388;17.798;2023-05-07T01:12:00;3.37;;;1.30;;
12687;SDS011;6408;59.388;17.798;2023-05-07T01:14:28;3.73;;;1.60;;
12687;SDS011;6408;59.388;17.798;2023-05-07T01:16:56;1.97;;;1.63;;
12687;SDS011;6408;59.388;17.798;2023-05-07T01:19:23;2.80;;;1.73;;
12687;SDS011;6408;59.388;17.798;2023-05-07T01:21:53;4.90;;;1.70;;
12687;SDS011;6408;59.388;17.798;2023-05-07T01:24:29;2.37;;;1.60;;
12687;SDS011;6408;59.388;17.798;2023-05-07T01:26:57;2.70;;;1.90;;
12687;SDS011;6408;59.388;17.798;2023-05-07T01:29:26;1.93;;;1.73;;
12687;SDS011;6408;59.388;17.798;2023-05-07T01:31:54;3.37;;;1.90;;
12687;SDS011;6408;59.388;17.798;2023-05-07T01:34:24;2.90;;;1.87;;
12687;SDS011;6408;59.388;17.798;2023-05-07T01:36:52;4.03;;;1.77;;
12687;SDS011;6408;59.388;17.798;2023-05-07T01:39:20;2.87;;;1.73;;
12687;SDS011;6408;59.388;17.798;2023-05-07T01:41:50;2.87;;;1.80;;
12687;SDS011;6408;59.388;17.798;2023-05-07T01:44:18;2.20;;;1.83;;
12687;SDS011;6408;59.388;17.798;2023-05-07T01:46:45;2.07;;;1.70;;
12687;SDS011;6408;59.388;17.798;2023-05-07T01:49:14;5.50;;;2.13;;
12687;SDS011;6408;59.388;17.798;2023-05-07T01:51:41;4.20;;;1.97;;
12687;SDS011;6408;59.388;17.798;2023-05-07T01:54:10;2.43;;;1.80;;
12687;SDS011;6408;59.388;17.798;2023-05-07T01:56:37;2.43;;;1.97;;
12687;SDS011;6408;59.388;17.798;2023-05-07T01:59:06;2.13;;;1.67;;
12687;SDS011;6408;59.388;17.798;2023-05-07T02:01:33;4.80;;;2.20;;
12687;SDS011;6408;59.388;17.798;2023-05-07T02:04:01;2.13;;;1.80;;
12687;SDS011;6408;59.388;17.798;2023-05-07T02:06:28;3.73;;;1.87;;
12687;SDS011;6408;59.388;17.798;2023-05-07T02:08:55;3.27;;;2.17;;
12687;SDS011;6408;59.388;17.798;2023-05-07T02:11:23;3.17;;;1.97;;
12687;SDS011;6408;59.388;17.798;2023-05-07T02:13:50;3.53;;;2.30;;
12687;SDS011;6408;59.388;17.798;2023-05-07T02:16:19;3.37;;;2.27;;
12687;SDS011;6408;59.388;17.798;2023-05-07T02:18:48;2.27;;;1.80;;
12687;SDS011;6408;59.388;17.798;2023-05-07T02:21:15;2.47;;;2.17;;
12687;SDS011;6408;59.388;17.798;2023-05-07T02:23:43;4.50;;;2.00;;
12687;SDS011;6408;59.388;17.798;2023-05-07T02:26:10;3.87;;;2.30;;
12687;SDS011;6408;59.388;17.798;2023-05-07T02:28:37;5.07;;;1.87;;
12687;SDS011;6408;59.388;17.798;2023-05-07T02:31:05;5.00;;;2.10;;
12687;SDS011;6408;59.388;17.798;2023-05-07T02:33:34;1.87;;;1.70;;
12687;SDS011;6408;59.388;17.798;2023-05-07T02:36:07;5.53;;;2.13;;
12687;SDS011;6408;59.388;17.798;2023-05-07T02:38:35;2.30;;;2.10;;
12687;SDS011;6408;59.388;17.798;2023-05-07T02:41:03;2.40;;;2.10;;
12687;SDS011;6408;59.388;17.798;2023-05-07T02:43:31;2.67;;;2.00;;
12687;SDS011;6408;59.388;17.798;2023-05-07T02:46:02;3.67;;;2.10;;
12687;SDS011;6408;59.388;17.798;2023-05-07T02:48:31;3.43;;;1.90;;
12687;SDS011;6408;59.388;17.798;2023-05-07T02:51:01;2.33;;;1.90;;
12687;SDS011;6408;59.388;17.798;2023-05-07T02:53:29;2.10;;;1.90;;
12687;SDS011;6408;59.388;17.798;2023-05-07T02:55:57;3.53;;;2.07;;
12687;SDS011;6408;59.388;17.798;2023-05-07T02:58:25;1.97;;;1.50;;
12687;SDS011;6408;59.388;17.798;2023-05-07T03:00:53;2.53;;;1.80;;
12687;SDS011;6408;59.388;17.798;2023-05-07T03:03:20;2.70;;;1.80;;
12687;SDS011;6408;59.388;17.798;2023-05-07T03:05:48;2.03;;;1.83;;
12687;SDS011;6408;59.388;17.798;2023-05-07T03:08:16;2.60;;;1.70;;
12687;SDS011;6408;59.388;17.798;2023-05-07T03:10:43;2.13;;;1.93;;
12687;SDS011;6408;59.388;17.798;2023-05-07T03:13:11;2.10;;;1.90;;
12687;SDS011;6408;59.388;17.798;2023-05-07T03:15:38;3.03;;;2.00;;
12687;SDS011;6408;59.388;17.798;2023-05-07T03:18:05;2.80;;;1.70;;
12687;SDS011;6408;59.388;17.798;2023-05-07T03:20:33;2.13;;;1.93;;
12687;SDS011;6408;59.388;17.798;2023-05-07T03:23:01;3.77;;;2.10;;
12687;SDS011;6408;59.388;17.798;2023-05-07T03:25:30;2.30;;;1.73;;
12687;SDS011;6408;59.388;17.798;2023-05-07T03:27:57;2.80;;;1.97;;
12687;SDS011;6408;59.388;17.798;2023-05-07T03:30:25;2.23;;;1.80;;
12687;SDS011;6408;59.388;17.798;2023-05-07T03:32:52;1.90;;;1.53;;
12687;SDS011;6408;59.388;17.798;2023-05-07T03:35:19;2.50;;;1.80;;
12687;SDS011;6408;59.388;17.798;2023-05-07T03:37:47;2.07;;;1.87;;
12687;SDS011;6408;59.388;17.798;2023-05-07T03:40:15;2.43;;;1.90;;
12687;SDS011;6408;59.388;17.798;2023-05-07T03:42:44;2.20;;;1.93;;
12687;SDS011;6408;59.388;17.798;2023-05-07T03:45:11;2.53;;;2.03;;
12687;SDS011;6408;59.388;17.798;2023-05-07T03:47:39;2.10;;;1.90;;
12687;SDS011;6408;59.388;17.798;2023-05-07T03:50:06;3.27;;;1.83;;
12687;SDS011;6408;59.388;17.798;2023-05-07T03:52:34;3.27;;;2.17;;
12687;SDS011;6408;59.388;17.798;2023-05-07T03:55:01;3.33;;;1.90;;
12687;SDS011;6408;59.388;17.798;2023-05-07T03:57:29;2.00;;;1.80;;
12687;SDS011;6408;59.388;17.798;2023-05-07T03:59:58;2.10;;;1.90;;
12687;SDS011;6408;59.388;17.798;2023-05-07T04:02:25;2.10;;;1.90;;
12687;SDS011;6408;59.388;17.798;2023-05-07T04:04:53;2.47;;;2.00;;
12687;SDS011;6408;59.388;17.798;2023-05-07T04:07:20;4.10;;;1.70;;
12687;SDS011;6408;59.388;17.798;2023-05-07T04:09:47;3.70;;;1.83;;
12687;SDS011;6408;59.388;17.798;2023-05-07T04:12:15;2.53;;;1.60;;
12687;SDS011;6408;59.388;17.798;2023-05-07T04:14:42;2.13;;;1.80;;
12687;SDS011;6408;59.388;17.798;2023-05-07T04:17:11;2.77;;;1.77;;
12687;SDS011;6408;59.388;17.798;2023-05-07T04:19:39;2.43;;;1.97;;
12687;SDS011;6408;59.388;17.798;2023-05-07T04:22:10;2.23;;;1.63;;
12687;SDS011;6408;59.388;17.798;2023-05-07T04:24:37;2.03;;;1.60;;
12687;SDS011;6408;59.388;17.798;2023-05-07T04:27:05;2.80;;;1.80;;
12687;SDS011;6408;59.388;17.798;2023-05-07T04:29:32;1.90;;;1.70;;
12687;SDS011;6408;59.388;17.798;2023-05-07T04:32:00;2.30;;;2.03;;
12687;SDS011;6408;59.388;17.798;2023-05-07T04:34:28;3.00;;;1.90;;
12687;SDS011;6408;59.388;17.798;2023-05-07T04:36:58;1.60;;;1.50;;
12687;SDS011;6408;59.388;17.798;2023-05-07T04:39:26;1.97;;;1.77;;
12687;SDS011;6408;59.388;17.798;2023-05-07T04:41:53;1.93;;;1.60;;
12687;SDS011;6408;59.388;17.798;2023-05-07T04:44:20;2.43;;;1.80;;
12687;SDS011;6408;59.388;17.798;2023-05-07T04:46:47;1.87;;;1.67;;
12687;SDS011;6408;59.388;17.798;2023-05-07T04:49:14;2.60;;;2.10;;
12687;SDS011;6408;59.388;17.798;2023-05-07T04:51:43;1.97;;;1.70;;
12687;SDS011;6408;59.388;17.798;2023-05-07T04:54:10;2.10;;;1.60;;
12687;SDS011;6408;59.388;17.798;2023-05-07T04:56:38;2.83;;;1.63;;
12687;SDS011;6408;59.388;17.798;2023-05-07T04:59:05;1.87;;;1.47;;
12687;SDS011;6408;59.388;17.798;2023-05-07T05:01:32;1.73;;;1.43;;
12687;SDS011;6408;59.388;17.798;2023-05-07T05:04:00;1.77;;;1.40;;
12687;SDS011;6408;59.388;17.798;2023-05-07T05:06:27;1.93;;;1.50;;
12687;SDS011;6408;59.388;17.798;2023-05-07T05:08:55;2.50;;;1.30;;
12687;SDS011;6408;59.388;17.798;2023-05-07T05:11:23;2.00;;;1.50;;
12687;SDS011;6408;59.388;17.798;2023-05-07T05:13:50;1.70;;;1.50;;
12687;SDS011;6408;59.388;17.798;2023-05-07T05:16:18;1.70;;;1.53;;
12687;SDS011;6408;59.388;17.798;2023-05-07T05:18:45;2.53;;;1.70;;
12687;SDS011;6408;59.388;17.798;2023-05-07T05:21:14;1.50;;;1.40;;
12687;SDS011;6408;59.388;17.798;2023-05-07T05:23:42;1.67;;;1.23;;
12687;SDS011;6408;59.388;17.798;2023-05-07T05:26:11;2.43;;;1.27;;
12687;SDS011;6408;59.388;17.798;2023-05-07T05:28:38;1.77;;;1.50;;
12687;SDS011;6408;59.388;17.798;2023-05-07T05:31:06;2.50;;;1.20;;
12687;SDS011;6408;59.388;17.798;2023-05-07T05:33:33;3.00;;;1.53;;
12687;SDS011;6408;59.388;17.798;2023-05-07T05:36:00;1.43;;;1.30;;
12687;SDS011;6408;59.388;17.798;2023-05-07T05:38:28;2.37;;;1.33;;
12687;SDS011;6408;59.388;17.798;2023-05-07T05:40:55;1.40;;;1.30;;
12687;SDS011;6408;59.388;17.798;2023-05-07T05:43:24;1.77;;;1.27;;
12687;SDS011;6408;59.388;17.798;2023-05-07T05:45:51;1.97;;;1.33;;
12687;SDS011;6408;59.388;17.798;2023-05-07T05:48:19;1.80;;;1.30;;
12687;SDS011;6408;59.388;17.798;2023-05-07T05:50:46;1.30;;;1.20;;
12687;SDS011;6408;59.388;17.798;2023-05-07T05:53:14;1.33;;;1.20;;
12687;SDS011;6408;59.388;17.798;2023-05-07T05:55:41;3.43;;;1.33;;
12687;SDS011;6408;59.388;17.798;2023-05-07T05:58:09;1.40;;;1.20;;
12687;SDS011;6408;59.388;17.798;2023-05-07T06:00:38;1.33;;;1.07;;
12687;SDS011;6408;59.388;17.798;2023-05-07T06:03:05;2.93;;;1.80;;
12687;SDS011;6408;59.388;17.798;2023-05-07T06:05:33;1.10;;;1.10;;
12687;SDS011;6408;59.388;17.798;2023-05-07T06:08:00;1.23;;;1.10;;
12687;SDS011;6408;59.388;17.798;2023-05-07T06:10:28;1.47;;;1.30;;
12687;SDS011;6408;59.388;17.798;2023-05-07T06:12:56;1.27;;;1.10;;
12687;SDS011;6408;59.388;17.798;2023-05-07T06:15:23;1.40;;;1.30;;
12687;SDS011;6408;59.388;17.798;2023-05-07T06:17:52;3.30;;;1.20;;
12687;SDS011;6408;59.388;17.798;2023-05-07T06:20:21;2.43;;;1.30;;
12687;SDS011;6408;59.388;17.798;2023-05-07T06:22:48;1.60;;;1.00;;
12687;SDS011;6408;59.388;17.798;2023-05-07T06:25:15;2.13;;;1.33;;
12687;SDS011;6408;59.388;17.798;2023-05-07T06:27:43;1.53;;;1.30;;
12687;SDS011;6408;59.388;17.798;2023-05-07T06:30:10;2.17;;;1.20;;
12687;SDS011;6408;59.388;17.798;2023-05-07T06:32:40;2.07;;;1.17;;
12687;SDS011;6408;59.388;17.798;2023-05-07T06:35:09;1.20;;;1.10;;
12687;SDS011;6408;59.388;17.798;2023-05-07T06:37:37;1.37;;;1.27;;
12687;SDS011;6408;59.388;17.798;2023-05-07T06:40:07;1.57;;;1.27;;
12687;SDS011;6408;59.388;17.798;2023-05-07T06:42:36;1.40;;;1.30;;
12687;SDS011;6408;59.388;17.798;2023-05-07T06:45:04;1.87;;;1.20;;
12687;SDS011;6408;59.388;17.798;2023-05-07T06:47:32;4.37;;;1.10;;
12687;SDS011;6408;59.388;17.798;2023-05-07T06:49:59;1.13;;;1.00;;
12687;SDS011;6408;59.388;17.798;2023-05-07T06:52:28;2.60;;;1.20;;
12687;SDS011;6408;59.388;17.798;2023-05-07T06:54:56;2.20;;;1.47;;
12687;SDS011;6408;59.388;17.798;2023-05-07T06:57:24;1.03;;;0.97;;
12687;SDS011;6408;59.388;17.798;2023-05-07T06:59:51;1.67;;;1.07;;
12687;SDS011;6408;59.388;17.798;2023-05-07T07:02:18;2.30;;;1.40;;
12687;SDS011;6408;59.388;17.798;2023-05-07T07:04:46;1.50;;;1.20;;
12687;SDS011;6408;59.388;17.798;2023-05-07T07:07:13;1.33;;;0.93;;
12687;SDS011;6408;59.388;17.798;2023-05-07T07:09:42;2.50;;;1.10;;
12687;SDS011;6408;59.388;17.798;2023-05-07T07:12:10;1.27;;;1.07;;
12687;SDS011;6408;59.388;17.798;2023-05-07T07:14:37;2.17;;;1.20;;
12687;SDS011;6408;59.388;17.798;2023-05-07T07:17:04;1.37;;;1.13;;
12687;SDS011;6408;59.388;17.798;2023-05-07T07:19:31;2.73;;;1.10;;
12687;SDS011;6408;59.388;17.798;2023-05-07T07:21:59;2.00;;;1.33;;
12687;SDS011;6408;59.388;17.798;2023-05-07T07:24:26;1.27;;;1.17;;
12687;SDS011;6408;59.388;17.798;2023-05-07T07:26:55;5.30;;;1.37;;
12687;SDS011;6408;59.388;17.798;2023-05-07T07:29:23;1.57;;;1.00;;
12687;SDS011;6408;59.388;17.798;2023-05-07T07:31:51;1.47;;;1.10;;
12687;SDS011;6408;59.388;17.798;2023-05-07T07:34:19;1.80;;;1.00;;
12687;SDS011;6408;59.388;17.798;2023-05-07T07:36:47;1.70;;;1.37;;
12687;SDS011;6408;59.388;17.798;2023-05-07T07:39:15;1.20;;;1.10;;
12687;SDS011;6408;59.388;17.798;2023-05-07T07:41:42;1.87;;;1.10;;
12687;SDS011;6408;59.388;17.798;2023-05-07T07:44:11;2.53;;;1.00;;
12687;SDS011;6408;59.388;17.798;2023-05-07T07:46:38;1.40;;;1.03;;
12687;SDS011;6408;59.388;17.798;2023-05-07T07:49:06;1.87;;;1.30;;
12687;SDS011;6408;59.388;17.798;2023-05-07T07:51:33;3.60;;;1.20;;
12687;SDS011;6408;59.388;17.798;2023-05-07T07:54:00;1.53;;;1.17;;
12687;SDS011;6408;59.388;17.798;2023-05-07T07:56:28;1.10;;;1.00;;
12687;SDS011;6408;59.388;17.798;2023-05-07T07:58:56;2.07;;;1.10;;
12687;SDS011;6408;59.388;17.798;2023-05-07T08:01:25;3.90;;;1.23;;
12687;SDS011;6408;59.388;17.798;2023-05-07T08:03:52;2.07;;;1.27;;
12687;SDS011;6408;59.388;17.798;2023-05-07T08:06:20;1.23;;;0.93;;
12687;SDS011;6408;59.388;17.798;2023-05-07T08:08:48;1.35;;;1.10;;
12687;SDS011;6408;59.388;17.798;2023-05-07T08:11:15;1.30;;;1.10;;
12687;SDS011;6408;59.388;17.798;2023-05-07T08:13:43;1.48;;;1.33;;
12687;SDS011;6408;59.388;17.798;2023-05-07T08:16:10;2.90;;;1.35;;
12687;SDS011;6408;59.388;17.798;2023-05-07T08:18:39;1.60;;;1.33;;
12687;SDS011;6408;59.388;17.798;2023-05-07T08:21:06;1.10;;;1.00;;
12687;SDS011;6408;59.388;17.798;2023-05-07T08:23:34;1.95;;;1.10;;
12687;SDS011;6408;59.388;17.798;2023-05-07T08:26:01;5.82;;;2.38;;
12687;SDS011;6408;59.388;17.798;2023-05-07T08:28:29;2.38;;;1.33;;
12687;SDS011;6408;59.388;17.798;2023-05-07T08:30:56;1.80;;;1.20;;
12687;SDS011;6408;59.388;17.798;2023-05-07T08:33:25;2.38;;;1.30;;
12687;SDS011;6408;59.388;17.798;2023-05-07T08:35:54;2.65;;;1.45;;
12687;SDS011;6408;59.388;17.798;2023-05-07T08:38:21;3.50;;;1.25;;
12687;SDS011;6408;59.388;17.798;2023-05-07T08:40:49;2.00;;;1.50;;
12687;SDS011;6408;59.388;17.798;2023-05-07T08:43:16;3.33;;;1.40;;
12687;SDS011;6408;59.388;17.798;2023-05-07T08:45:45;1.75;;;1.23;;
12687;SDS011;6408;59.388;17.798;2023-05-07T08:48:15;3.00;;;1.50;;
12687;SDS011;6408;59.388;17.798;2023-05-07T08:50:43;2.40;;;1.20;;
12687;SDS011;6408;59.388;17.798;2023-05-07T08:53:13;2.85;;;1.20;;
12687;SDS011;6408;59.388;17.798;2023-05-07T08:55:47;2.13;;;1.60;;
12687;SDS011;6408;59.388;17.798;2023-05-07T08:58:14;1.65;;;1.33;;
12687;SDS011;6408;59.388;17.798;2023-05-07T09:00:42;2.00;;;1.25;;
12687;SDS011;6408;59.388;17.798;2023-05-07T09:03:09;2.00;;;1.13;;
12687;SDS011;6408;59.388;17.798;2023-05-07T09:05:39;1.88;;;1.08;;
12687;SDS011;6408;59.388;17.798;2023-05-07T09:08:08;0.90;;;0.88;;
12687;SDS011;6408;59.388;17.798;2023-05-07T09:10:38;1.05;;;0.90;;
12687;SDS011;6408;59.388;17.798;2023-05-07T09:13:06;3.10;;;1.10;;
12687;SDS011;6408;59.388;17.798;2023-05-07T09:15:34;13.68;;;2.33;;
12687;SDS011;6408;59.388;17.798;2023-05-07T09:18:01;3.13;;;0.95;;
12687;SDS011;6408;59.388;17.798;2023-05-07T09:20:30;1.10;;;1.00;;
12687;SDS011;6408;59.388;17.798;2023-05-07T09:22:58;2.28;;;1.05;;
12687;SDS011;6408;59.388;17.798;2023-05-07T09:25:28;1.48;;;1.10;;
12687;SDS011;6408;59.388;17.798;2023-05-07T09:27:58;1.05;;;1.00;;
12687;SDS011;6408;59.388;17.798;2023-05-07T09:30:27;1.77;;;1.33;;
12687;SDS011;6408;59.388;17.798;2023-05-07T09:32:55;2.90;;;1.20;;
12687;SDS011;6408;59.388;17.798;2023-05-07T09:35:22;2.40;;;1.10;;
12687;SDS011;6408;59.388;17.798;2023-05-07T09:37:52;1.08;;;0.90;;
12687;SDS011;6408;59.388;17.798;2023-05-07T09:40:20;1.92;;;1.10;;
12687;SDS011;6408;59.388;17.798;2023-05-07T09:42:49;1.73;;;1.50;;
12687;SDS011;6408;59.388;17.798;2023-05-07T09:45:22;1.35;;;1.20;;
12687;SDS011;6408;59.388;17.798;2023-05-07T09:47:53;1.52;;;1.15;;
12687;SDS011;6408;59.388;17.798;2023-05-07T09:50:22;3.17;;;1.50;;
12687;SDS011;6408;59.388;17.798;2023-05-07T09:52:55;3.17;;;1.00;;
12687;SDS011;6408;59.388;17.798;2023-05-07T09:55:23;2.63;;;1.05;;
12687;SDS011;6408;59.388;17.798;2023-05-07T09:57:52;1.73;;;0.95;;
12687;SDS011;6408;59.388;17.798;2023-05-07T10:00:22;1.13;;;1.02;;
12687;SDS011;6408;59.388;17.798;2023-05-07T10:02:51;2.03;;;1.10;;
12687;SDS011;6408;59.388;17.798;2023-05-07T10:05:19;2.05;;;1.08;;
12687;SDS011;6408;59.388;17.798;2023-05-07T10:07:48;1.95;;;0.95;;
12687;SDS011;6408;59.388;17.798;2023-05-07T10:10:16;1.27;;;1.15;;
12687;SDS011;6408;59.388;17.798;2023-05-07T10:12:44;3.70;;;0.93;;
12687;SDS011;6408;59.388;17.798;2023-05-07T10:15:12;1.42;;;0.93;;
12687;SDS011;6408;59.388;17.798;2023-05-07T10:17:42;1.20;;;1.00;;
12687;SDS011;6408;59.388;17.798;2023-05-07T10:20:11;2.47;;;1.40;;
12687;SDS011;6408;59.388;17.798;2023-05-07T10:22:40;1.45;;;0.90;;
12687;SDS011;6408;59.388;17.798;2023-05-07T10:25:14;0.98;;;0.93;;
12687;SDS011;6408;59.388;17.798;2023-05-07T10:27:45;1.27;;;1.13;;
12687;SDS011;6408;59.388;17.798;2023-05-07T10:30:16;1.10;;;1.00;;
12687;SDS011;6408;59.388;17.798;2023-05-07T10:32:53;2.95;;;1.23;;
12687;SDS011;6408;59.388;17.798;2023-05-07T10:35:31;1.20;;;1.10;;
12687;SDS011;6408;59.388;17.798;2023-05-07T10:38:03;2.08;;;1.30;;
12687;SDS011;6408;59.388;17.798;2023-05-07T10:40:30;1.00;;;0.98;;
12687;SDS011;6408;59.388;17.798;2023-05-07T10:42:58;2.05;;;1.30;;
12687;SDS011;6408;59.388;17.798;2023-05-07T10:45:27;4.20;;;1.15;;
12687;SDS011;6408;59.388;17.798;2023-05-07T10:48:07;2.55;;;1.00;;
12687;SDS011;6408;59.388;17.798;2023-05-07T10:50:36;1.13;;;1.02;;
12687;SDS011;6408;59.388;17.798;2023-05-07T10:53:20;2.42;;;1.05;;
12687;SDS011;6408;59.388;17.798;2023-05-07T11:02:06;1.10;;;1.00;;
12687;SDS011;6408;59.388;17.798;2023-05-07T11:04:38;1.10;;;1.02;;
12687;SDS011;6408;59.388;17.798;2023-05-07T11:09:59;1.60;;;1.05;;
12687;SDS011;6408;59.388;17.798;2023-05-07T11:12:47;2.85;;;1.00;;
12687;SDS011;6408;59.388;17.798;2023-05-07T11:15:34;1.63;;;0.98;;
12687;SDS011;6408;59.388;17.798;2023-05-07T11:18:02;0.80;;;0.80;;
12687;SDS011;6408;59.388;17.798;2023-05-07T11:20:48;0.70;;;0.70;;
12687;SDS011;6408;59.388;17.798;2023-05-07T11:26:21;0.88;;;0.88;;
12687;SDS011;6408;59.388;17.798;2023-05-07T11:28:49;1.42;;;1.17;;
12687;SDS011;6408;59.388;17.798;2023-05-07T11:31:20;1.52;;;1.15;;
12687;SDS011;6408;59.388;17.798;2023-05-07T11:33:49;1.23;;;1.00;;
12687;SDS011;6408;59.388;17.798;2023-05-07T11:36:18;1.70;;;0.85;;
12687;SDS011;6408;59.388;17.798;2023-05-07T11:38:46;1.90;;;1.00;;
12687;SDS011;6408;59.388;17.798;2023-05-07T11:41:15;1.05;;;0.90;;
12687;SDS011;6408;59.388;17.798;2023-05-07T11:43:54;2.47;;;1.10;;
12687;SDS011;6408;59.388;17.798;2023-05-07T11:46:26;1.85;;;1.13;;
12687;SDS011;6408;59.388;17.798;2023-05-07T11:48:54;3.65;;;1.23;;
12687;SDS011;6408;59.388;17.798;2023-05-07T11:51:24;1.10;;;1.00;;
12687;SDS011;6408;59.388;17.798;2023-05-07T11:53:52;2.35;;;1.55;;
12687;SDS011;6408;59.388;17.798;2023-05-07T11:56:20;2.17;;;1.98;;
12687;SDS011;6408;59.388;17.798;2023-05-07T11:58:48;2.80;;;1.70;;
12687;SDS011;6408;59.388;17.798;2023-05-07T12:01:17;1.83;;;0.90;;
12687;SDS011;6408;59.388;17.798;2023-05-07T12:03:45;0.80;;;0.80;;
12687;SDS011;6408;59.388;17.798;2023-05-07T12:06:13;2.67;;;1.00;;
12687;SDS011;6408;59.388;17.798;2023-05-07T12:08:45;3.30;;;1.20;;
12687;SDS011;6408;59.388;17.798;2023-05-07T12:11:14;1.20;;;1.08;;
12687;SDS011;6408;59.388;17.798;2023-05-07T12:13:43;1.27;;;1.00;;
12687;SDS011;6408;59.388;17.798;2023-05-07T12:16:11;1.95;;;1.08;;
12687;SDS011;6408;59.388;17.798;2023-05-07T12:18:40;3.58;;;1.30;;
12687;SDS011;6408;59.388;17.798;2023-05-07T12:21:08;2.65;;;1.10;;
12687;SDS011;6408;59.388;17.798;2023-05-07T12:23:36;1.23;;;1.10;;
12687;SDS011;6408;59.388;17.798;2023-05-07T12:26:06;6.45;;;1.20;;
12687;SDS011;6408;59.388;17.798;2023-05-07T12:28:36;1.50;;;1.30;;
12687;SDS011;6408;59.388;17.798;2023-05-07T12:31:05;2.25;;;1.23;;
12687;SDS011;6408;59.388;17.798;2023-05-07T12:33:34;1.60;;;1.17;;
12687;SDS011;6408;59.388;17.798;2023-05-07T12:36:06;4.03;;;1.20;;
12687;SDS011;6408;59.388;17.798;2023-05-07T12:38:35;2.50;;;1.17;;
12687;SDS011;6408;59.388;17.798;2023-05-07T12:41:03;1.00;;;0.90;;
12687;SDS011;6408;59.388;17.798;2023-05-07T12:43:33;2.50;;;1.00;;
12687;SDS011;6408;59.388;17.798;2023-05-07T12:46:02;1.48;;;1.02;;
12687;SDS011;6408;59.388;17.798;2023-05-07T12:48:31;2.03;;;1.10;;
12687;SDS011;6408;59.388;17.798;2023-05-07T12:50:59;2.47;;;1.40;;
12687;SDS011;6408;59.388;17.798;2023-05-07T12:53:28;1.88;;;1.08;;
12687;SDS011;6408;59.388;17.798;2023-05-07T12:55:57;3.53;;;1.23;;
12687;SDS011;6408;59.388;17.798;2023-05-07T12:58:28;1.55;;;1.13;;
12687;SDS011;6408;59.388;17.798;2023-05-07T13:00:58;1.38;;;1.17;;
12687;SDS011;6408;59.388;17.798;2023-05-07T13:03:28;2.55;;;1.17;;
12687;SDS011;6408;59.388;17.798;2023-05-07T13:08:25;2.10;;;1.10;;
12687;SDS011;6408;59.388;17.798;2023-05-07T13:10:54;1.58;;;1.10;;
12687;SDS011;6408;59.388;17.798;2023-05-07T13:13:21;1.83;;;1.10;;
12687;SDS011;6408;59.388;17.798;2023-05-07T13:15:51;1.92;;;1.17;;
12687;SDS011;6408;59.388;17.798;2023-05-07T13:18:22;2.10;;;1.00;;
12687;SDS011;6408;59.388;17.798;2023-05-07T13:20:50;1.20;;;1.10;;
12687;SDS011;6408;59.388;17.798;2023-05-07T13:23:18;2.83;;;1.08;;
12687;SDS011;6408;59.388;17.798;2023-05-07T13:25:45;1.02;;;0.93;;
12687;SDS011;6408;59.388;17.798;2023-05-07T13:28:13;1.88;;;1.20;;
12687;SDS011;6408;59.388;17.798;2023-05-07T13:30:40;1.15;;;1.00;;
12687;SDS011;6408;59.388;17.798;2023-05-07T13:33:10;1.55;;;1.30;;
12687;SDS011;6408;59.388;17.798;2023-05-07T13:35:37;1.65;;;1.10;;
12687;SDS011;6408;59.388;17.798;2023-05-07T13:38:04;1.45;;;1.20;;
12687;SDS011;6408;59.388;17.798;2023-05-07T13:40:32;3.03;;;1.17;;
12687;SDS011;6408;59.388;17.798;2023-05-07T13:42:59;1.23;;;1.08;;
12687;SDS011;6408;59.388;17.798;2023-05-07T13:45:28;2.95;;;1.20;;
12687;SDS011;6408;59.388;17.798;2023-05-07T13:47:56;3.72;;;1.23;;
12687;SDS011;6408;59.388;17.798;2023-05-07T13:50:25;1.15;;;1.05;;
12687;SDS011;6408;59.388;17.798;2023-05-07T13:52:54;2.58;;;1.15;;
12687;SDS011;6408;59.388;17.798;2023-05-07T13:55:23;4.28;;;1.25;;
12687;SDS011;6408;59.388;17.798;2023-05-07T13:57:55;2.17;;;1.00;;
12687;SDS011;6408;59.388;17.798;2023-05-07T14:00:23;2.70;;;1.20;;
12687;SDS011;6408;59.388;17.798;2023-05-07T14:02:51;2.65;;;1.15;;
12687;SDS011;6408;59.388;17.798;2023-05-07T14:05:19;3.15;;;1.35;;
12687;SDS011;6408;59.388;17.798;2023-05-07T14:07:50;1.55;;;1.40;;
12687;SDS011;6408;59.388;17.798;2023-05-07T14:10:18;4.55;;;1.60;;
12687;SDS011;6408;59.388;17.798;2023-05-07T14:12:45;1.65;;;1.42;;
12687;SDS011;6408;59.388;17.798;2023-05-07T14:15:13;4.20;;;1.35;;
12687;SDS011;6408;59.388;17.798;2023-05-07T14:17:41;1.35;;;1.25;;
12687;SDS011;6408;59.388;17.798;2023-05-07T14:20:09;2.13;;;1.20;;
12687;SDS011;6408;59.388;17.798;2023-05-07T14:22:37;1.92;;;1.13;;
12687;SDS011;6408;59.388;17.798;2023-05-07T14:25:07;1.83;;;1.23;;
12687;SDS011;6408;59.388;17.798;2023-05-07T14:27:35;2.22;;;1.02;;
12687;SDS011;6408;59.388;17.798;2023-05-07T14:30:04;2.13;;;1.00;;
12687;SDS011;6408;59.388;17.798;2023-05-07T14:32:32;2.40;;;1.00;;
12687;SDS011;6408;59.388;17.798;2023-05-07T14:35:00;1.35;;;1.10;;
12687;SDS011;6408;59.388;17.798;2023-05-07T14:37:27;1.10;;;1.00;;
12687;SDS011;6408;59.388;17.798;2023-05-07T14:39:55;1.58;;;0.95;;
12687;SDS011;6408;59.388;17.798;2023-05-07T14:42:24;2.65;;;1.08;;
12687;SDS011;6408;59.388;17.798;2023-05-07T14:44:52;2.92;;;1.20;;
12687;SDS011;6408;59.388;17.798;2023-05-07T14:47:19;3.88;;;1.20;;
12687;SDS011;6408;59.388;17.798;2023-05-07T14:49:47;2.17;;;1.15;;
12687;SDS011;6408;59.388;17.798;2023-05-07T14:52:14;2.50;;;1.10;;
12687;SDS011;6408;59.388;17.798;2023-05-07T14:54:42;2.20;;;1.38;;
12687;SDS011;6408;59.388;17.798;2023-05-07T14:57:09;2.10;;;1.20;;
12687;SDS011;6408;59.388;17.798;2023-05-07T14:59:40;2.88;;;1.30;;
12687;SDS011;6408;59.388;17.798;2023-05-07T15:02:07;1.58;;;1.00;;
12687;SDS011;6408;59.388;17.798;2023-05-07T15:04:36;5.65;;;1.17;;
12687;SDS011;6408;59.388;17.798;2023-05-07T15:07:05;2.35;;;1.13;;
12687;SDS011;6408;59.388;17.798;2023-05-07T15:09:33;4.07;;;1.30;;